sensor_id;sensor_type;location;lat;lon;timestamp;temperature;humidity
55064;DHT22;40963;52.168;21.296;2023-08-06T00:00:22;19.10;99.90
55064;DHT22;40963;52.168;21.296;2023-08-06T00:02:48;19.10;99.90
55064;DHT22;40963;52.168;21.296;2023-08-06T00:05:14;19.10;99.90
55064;DHT22;40963;52.168;21.296;2023-08-06T00:07:47;19.10;99.90
55064;DHT22;40963;52.168;21.296;2023-08-06T00:10:12;19.10;99.90
55064;DHT22;40963;52.168;21.296;2023-08-06T00:12:38;19.10;99.90
55064;DHT22;40963;52.168;21.296;2023-08-06T00:15:04;19.00;99.90
55064;DHT22;40963;52.168;21.296;2023-08-06T00:17:30;19.10;99.90
55064;DHT22;40963;52.168;21.296;2023-08-06T00:19:55;19.00;99.90
55064;DHT22;40963;52.168;21.296;2023-08-06T00:22:21;19.00;99.90
55064;DHT22;40963;52.168;21.296;2023-08-06T00:24:46;19.00;99.90
55064;DHT22;40963;52.168;21.296;2023-08-06T00:27:12;19.10;99.90
55064;DHT22;40963;52.168;21.296;2023-08-06T00:29:37;19.10;99.90
55064;DHT22;40963;52.168;21.296;2023-08-06T00:32:03;19.10;99.90
55064;DHT22;40963;52.168;21.296;2023-08-06T00:34:29;19.10;99.90
55064;DHT22;40963;52.168;21.296;2023-08-06T00:36:54;19.10;99.90
55064;DHT22;40963;52.168;21.296;2023-08-06T00:39:20;19.10;99.90
55064;DHT22;40963;52.168;21.296;2023-08-06T00:41:46;19.10;99.90
55064;DHT22;40963;52.168;21.296;2023-08-06T00:44:11;19.10;99.90
55064;DHT22;40963;52.168;21.296;2023-08-06T00:46:37;19.10;99.90
55064;DHT22;40963;52.168;21.296;2023-08-06T00:49:03;19.10;99.90
55064;DHT22;40963;52.168;21.296;2023-08-06T00:51:30;19.10;99.90
55064;DHT22;40963;52.168;21.296;2023-08-06T00:53:56;19.10;99.90
55064;DHT22;40963;52.168;21.296;2023-08-06T00:56:21;19.20;99.90
55064;DHT22;40963;52.168;21.296;2023-08-06T00:58:47;19.20;99.90
55064;DHT22;40963;52.168;21.296;2023-08-06T01:01:13;19.20;99.90
55064;DHT22;40963;52.168;21.296;2023-08-06T01:03:39;19.20;99.90
55064;DHT22;40963;52.168;21.296;2023-08-06T01:06:05;19.20;99.90
55064;DHT22;40963;52.168;21.296;2023-08-06T01:11:38;19.10;99.90
55064;DHT22;40963;52.168;21.296;2023-08-06T01:14:18;19.10;99.90
55064;DHT22;40963;52.168;21.296;2023-08-06T01:16:46;19.10;99.90
55064;DHT22;40963;52.168;21.296;2023-08-06T01:19:16;19.10;99.90
55064;DHT22;40963;52.168;21.296;2023-08-06T01:21:42;19.10;99.90
55064;DHT22;40963;52.168;21.296;2023-08-06T01:24:08;19.10;99.90
55064;DHT22;40963;52.168;21.296;2023-08-06T01:29:08;19.00;99.90
55064;DHT22;40963;52.168;21.296;2023-08-06T01:31:37;19.00;99.90
55064;DHT22;40963;52.168;21.296;2023-08-06T01:34:07;19.00;99.90
55064;DHT22;40963;52.168;21.296;2023-08-06T01:36:34;19.00;99.90
55064;DHT22;40963;52.168;21.296;2023-08-06T01:39:00;19.00;99.90
55064;DHT22;40963;52.168;21.296;2023-08-06T01:41:26;19.00;99.90
55064;DHT22;40963;52.168;21.296;2023-08-06T01:43:51;19.00;99.90
55064;DHT22;40963;52.168;21.296;2023-08-06T01:46:17;19.00;99.90
55064;DHT22;40963;52.168;21.296;2023-08-06T01:48:43;18.90;99.90
55064;DHT22;40963;52.168;21.296;2023-08-06T01:51:08;18.90;99.90
55064;DHT22;40963;52.168;21.296;2023-08-06T01:53:34;18.90;99.90
55064;DHT22;40963;52.168;21.296;2023-08-06T01:56:00;18.90;99.90
55064;DHT22;40963;52.168;21.296;2023-08-06T01:58:25;18.90;99.90
55064;DHT22;40963;52.168;21.296;2023-08-06T02:00:51;18.90;99.90
55064;DHT22;40963;52.168;21.296;2023-08-06T02:03:16;18.90;99.90
55064;DHT22;40963;52.168;21.296;2023-08-06T02:05:42;18.90;99.90
55064;DHT22;40963;52.168;21.296;2023-08-06T02:08:08;18.90;99.90
55064;DHT22;40963;52.168;21.296;2023-08-06T02:10:34;18.90;99.90
55064;DHT22;40963;52.168;21.296;2023-08-06T02:12:59;18.90;99.90
55064;DHT22;40963;52.168;21.296;2023-08-06T02:15:25;18.90;99.90
55064;DHT22;40963;52.168;21.296;2023-08-06T02:17:51;18.90;99.90
55064;DHT22;40963;52.168;21.296;2023-08-06T02:20:16;19.00;99.90
55064;DHT22;40963;52.168;21.296;2023-08-06T02:22:42;18.90;99.90
55064;DHT22;40963;52.168;21.296;2023-08-06T02:25:08;18.90;99.90
55064;DHT22;40963;52.168;21.296;2023-08-06T02:27:33;18.90;99.90
55064;DHT22;40963;52.168;21.296;2023-08-06T02:29:59;18.90;99.90
55064;DHT22;40963;52.168;21.296;2023-08-06T02:32:25;19.00;99.90
55064;DHT22;40963;52.168;21.296;2023-08-06T02:34:50;19.00;99.90
55064;DHT22;40963;52.168;21.296;2023-08-06T02:37:16;19.00;99.90
55064;DHT22;40963;52.168;21.296;2023-08-06T02:39:42;19.00;99.90
55064;DHT22;40963;52.168;21.296;2023-08-06T02:42:08;19.00;99.90
55064;DHT22;40963;52.168;21.296;2023-08-06T02:44:35;19.00;99.90
55064;DHT22;40963;52.168;21.296;2023-08-06T02:47:01;19.00;99.90
55064;DHT22;40963;52.168;21.296;2023-08-06T02:49:26;19.00;99.90
55064;DHT22;40963;52.168;21.296;2023-08-06T02:51:52;19.00;99.90
55064;DHT22;40963;52.168;21.296;2023-08-06T02:54:20;19.00;99.90
55064;DHT22;40963;52.168;21.296;2023-08-06T02:56:46;19.10;99.90
55064;DHT22;40963;52.168;21.296;2023-08-06T02:59:12;19.00;99.90
55064;DHT22;40963;52.168;21.296;2023-08-06T03:01:38;19.10;99.90
55064;DHT22;40963;52.168;21.296;2023-08-06T03:04:04;19.10;99.90
55064;DHT22;40963;52.168;21.296;2023-08-06T03:06:30;19.10;99.90
55064;DHT22;40963;52.168;21.296;2023-08-06T03:08:56;19.10;99.90
55064;DHT22;40963;52.168;21.296;2023-08-06T03:11:21;19.10;99.90
55064;DHT22;40963;52.168;21.296;2023-08-06T03:13:48;19.10;99.90
55064;DHT22;40963;52.168;21.296;2023-08-06T03:16:13;19.10;99.90
55064;DHT22;40963;52.168;21.296;2023-08-06T03:18:39;19.20;99.90
55064;DHT22;40963;52.168;21.296;2023-08-06T03:21:05;19.20;99.90
55064;DHT22;40963;52.168;21.296;2023-08-06T03:23:30;19.20;99.90
55064;DHT22;40963;52.168;21.296;2023-08-06T03:25:56;19.20;99.90
55064;DHT22;40963;52.168;21.296;2023-08-06T03:28:26;19.20;99.90
55064;DHT22;40963;52.168;21.296;2023-08-06T03:31:02;19.20;99.90
55064;DHT22;40963;52.168;21.296;2023-08-06T03:33:28;19.20;99.90
55064;DHT22;40963;52.168;21.296;2023-08-06T03:35:54;19.20;99.90
55064;DHT22;40963;52.168;21.296;2023-08-06T03:38:20;19.20;99.90
55064;DHT22;40963;52.168;21.296;2023-08-06T03:40:48;19.20;99.90
55064;DHT22;40963;52.168;21.296;2023-08-06T03:43:14;19.20;99.90
55064;DHT22;40963;52.168;21.296;2023-08-06T03:45:40;19.20;99.90
55064;DHT22;40963;52.168;21.296;2023-08-06T03:48:07;19.20;99.90
55064;DHT22;40963;52.168;21.296;2023-08-06T03:50:32;19.30;99.90
55064;DHT22;40963;52.168;21.296;2023-08-06T03:52:58;19.30;99.90
55064;DHT22;40963;52.168;21.296;2023-08-06T03:55:23;19.30;99.90
55064;DHT22;40963;52.168;21.296;2023-08-06T03:57:49;19.30;99.90
55064;DHT22;40963;52.168;21.296;2023-08-06T04:00:15;19.30;99.90
55064;DHT22;40963;52.168;21.296;2023-08-06T04:02:41;19.30;99.90
55064;DHT22;40963;52.168;21.296;2023-08-06T04:05:06;19.30;99.90
55064;DHT22;40963;52.168;21.296;2023-08-06T04:07:32;19.30;99.90
55064;DHT22;40963;52.168;21.296;2023-08-06T04:09:59;19.30;99.90
55064;DHT22;40963;52.168;21.296;2023-08-06T04:12:25;19.30;99.90
55064;DHT22;40963;52.168;21.296;2023-08-06T04:14:51;19.30;99.90
55064;DHT22;40963;52.168;21.296;2023-08-06T04:17:20;19.40;99.90
55064;DHT22;40963;52.168;21.296;2023-08-06T04:19:50;19.40;99.90
55064;DHT22;40963;52.168;21.296;2023-08-06T04:22:16;19.30;99.90
55064;DHT22;40963;52.168;21.296;2023-08-06T04:24:42;19.40;99.90
55064;DHT22;40963;52.168;21.296;2023-08-06T04:27:09;19.30;99.90
55064;DHT22;40963;52.168;21.296;2023-08-06T04:29:35;19.40;99.90
55064;DHT22;40963;52.168;21.296;2023-08-06T04:32:01;19.40;99.90
55064;DHT22;40963;52.168;21.296;2023-08-06T04:34:27;19.40;99.90
55064;DHT22;40963;52.168;21.296;2023-08-06T04:36:52;19.40;99.90
55064;DHT22;40963;52.168;21.296;2023-08-06T04:39:18;19.50;99.90
55064;DHT22;40963;52.168;21.296;2023-08-06T04:41:43;19.50;99.90
55064;DHT22;40963;52.168;21.296;2023-08-06T04:44:09;19.50;99.90
55064;DHT22;40963;52.168;21.296;2023-08-06T04:46:35;19.50;99.90
55064;DHT22;40963;52.168;21.296;2023-08-06T04:49:01;19.60;99.90
55064;DHT22;40963;52.168;21.296;2023-08-06T04:51:26;19.60;99.90
55064;DHT22;40963;52.168;21.296;2023-08-06T04:53:52;19.70;99.90
55064;DHT22;40963;52.168;21.296;2023-08-06T04:56:17;19.70;99.90
55064;DHT22;40963;52.168;21.296;2023-08-06T04:58:43;19.70;99.90
55064;DHT22;40963;52.168;21.296;2023-08-06T05:01:09;19.80;99.90
55064;DHT22;40963;52.168;21.296;2023-08-06T05:03:34;19.80;99.90
55064;DHT22;40963;52.168;21.296;2023-08-06T05:06:00;19.90;99.90
55064;DHT22;40963;52.168;21.296;2023-08-06T05:08:26;19.90;99.90
55064;DHT22;40963;52.168;21.296;2023-08-06T05:10:51;19.90;99.90
55064;DHT22;40963;52.168;21.296;2023-08-06T05:13:17;20.00;99.90
55064;DHT22;40963;52.168;21.296;2023-08-06T05:15:42;20.00;99.90
55064;DHT22;40963;52.168;21.296;2023-08-06T05:18:10;20.10;99.90
55064;DHT22;40963;52.168;21.296;2023-08-06T05:20:37;20.10;99.90
55064;DHT22;40963;52.168;21.296;2023-08-06T05:23:03;20.20;99.90
55064;DHT22;40963;52.168;21.296;2023-08-06T05:25:29;20.20;99.90
55064;DHT22;40963;52.168;21.296;2023-08-06T05:27:55;20.20;99.90
55064;DHT22;40963;52.168;21.296;2023-08-06T05:30:21;20.30;99.90
55064;DHT22;40963;52.168;21.296;2023-08-06T05:32:46;20.30;99.90
55064;DHT22;40963;52.168;21.296;2023-08-06T05:35:12;20.40;99.90
55064;DHT22;40963;52.168;21.296;2023-08-06T05:37:38;20.40;99.90
55064;DHT22;40963;52.168;21.296;2023-08-06T05:40:04;20.50;99.90
55064;DHT22;40963;52.168;21.296;2023-08-06T05:42:30;20.50;99.90
55064;DHT22;40963;52.168;21.296;2023-08-06T05:44:56;20.50;99.90
55064;DHT22;40963;52.168;21.296;2023-08-06T05:47:21;20.60;99.90
55064;DHT22;40963;52.168;21.296;2023-08-06T05:49:47;20.60;99.90
55064;DHT22;40963;52.168;21.296;2023-08-06T05:52:13;20.60;99.90
55064;DHT22;40963;52.168;21.296;2023-08-06T05:54:38;20.70;99.90
55064;DHT22;40963;52.168;21.296;2023-08-06T05:57:06;20.70;99.90
55064;DHT22;40963;52.168;21.296;2023-08-06T05:59:32;20.80;99.90
55064;DHT22;40963;52.168;21.296;2023-08-06T06:01:57;20.80;99.90
55064;DHT22;40963;52.168;21.296;2023-08-06T06:04:23;20.90;99.90
55064;DHT22;40963;52.168;21.296;2023-08-06T06:06:48;21.00;99.90
55064;DHT22;40963;52.168;21.296;2023-08-06T06:09:14;21.10;99.90
55064;DHT22;40963;52.168;21.296;2023-08-06T06:11:40;21.20;99.90
55064;DHT22;40963;52.168;21.296;2023-08-06T06:14:05;21.30;99.90
55064;DHT22;40963;52.168;21.296;2023-08-06T06:16:31;21.40;99.90
55064;DHT22;40963;52.168;21.296;2023-08-06T06:18:56;21.40;99.90
55064;DHT22;40963;52.168;21.296;2023-08-06T06:21:23;21.50;99.90
55064;DHT22;40963;52.168;21.296;2023-08-06T06:23:49;21.60;99.90
55064;DHT22;40963;52.168;21.296;2023-08-06T06:26:17;21.70;99.90
55064;DHT22;40963;52.168;21.296;2023-08-06T06:28:42;21.80;99.90
55064;DHT22;40963;52.168;21.296;2023-08-06T06:31:08;21.90;99.90
55064;DHT22;40963;52.168;21.296;2023-08-06T06:33:34;22.00;99.90
55064;DHT22;40963;52.168;21.296;2023-08-06T06:36:00;22.10;99.90
55064;DHT22;40963;52.168;21.296;2023-08-06T06:38:28;22.20;99.90
55064;DHT22;40963;52.168;21.296;2023-08-06T06:40:57;22.30;99.90
55064;DHT22;40963;52.168;21.296;2023-08-06T06:43:23;22.40;99.90
55064;DHT22;40963;52.168;21.296;2023-08-06T06:45:53;22.50;99.90
55064;DHT22;40963;52.168;21.296;2023-08-06T06:48:19;22.60;99.90
55064;DHT22;40963;52.168;21.296;2023-08-06T06:50:47;22.70;99.90
55064;DHT22;40963;52.168;21.296;2023-08-06T06:53:13;22.80;99.90
55064;DHT22;40963;52.168;21.296;2023-08-06T06:55:39;22.90;99.90
55064;DHT22;40963;52.168;21.296;2023-08-06T06:58:05;23.00;99.90
55064;DHT22;40963;52.168;21.296;2023-08-06T07:00:30;23.10;99.90
55064;DHT22;40963;52.168;21.296;2023-08-06T07:02:56;23.20;99.90
55064;DHT22;40963;52.168;21.296;2023-08-06T07:05:22;23.30;99.90
55064;DHT22;40963;52.168;21.296;2023-08-06T07:07:47;23.40;99.90
55064;DHT22;40963;52.168;21.296;2023-08-06T07:10:13;23.50;99.90
55064;DHT22;40963;52.168;21.296;2023-08-06T07:12:39;23.60;99.90
55064;DHT22;40963;52.168;21.296;2023-08-06T07:15:06;23.70;99.90
55064;DHT22;40963;52.168;21.296;2023-08-06T07:17:32;23.80;99.90
55064;DHT22;40963;52.168;21.296;2023-08-06T07:19:57;23.90;99.90
55064;DHT22;40963;52.168;21.296;2023-08-06T07:22:23;24.00;99.90
55064;DHT22;40963;52.168;21.296;2023-08-06T07:24:48;24.10;99.90
55064;DHT22;40963;52.168;21.296;2023-08-06T07:27:14;24.20;99.90
55064;DHT22;40963;52.168;21.296;2023-08-06T07:29:39;24.20;99.90
55064;DHT22;40963;52.168;21.296;2023-08-06T07:32:06;24.40;99.90
55064;DHT22;40963;52.168;21.296;2023-08-06T07:34:32;24.40;99.90
55064;DHT22;40963;52.168;21.296;2023-08-06T07:36:58;24.50;99.90
55064;DHT22;40963;52.168;21.296;2023-08-06T07:39:24;24.60;99.90
55064;DHT22;40963;52.168;21.296;2023-08-06T07:41:49;24.70;99.90
55064;DHT22;40963;52.168;21.296;2023-08-06T07:44:15;24.70;99.90
55064;DHT22;40963;52.168;21.296;2023-08-06T07:46:41;24.80;99.90
55064;DHT22;40963;52.168;21.296;2023-08-06T07:49:06;24.90;99.90
55064;DHT22;40963;52.168;21.296;2023-08-06T07:51:32;25.00;99.90
55064;DHT22;40963;52.168;21.296;2023-08-06T07:53:58;25.10;99.90
55064;DHT22;40963;52.168;21.296;2023-08-06T07:56:23;25.20;99.90
55064;DHT22;40963;52.168;21.296;2023-08-06T07:58:49;25.30;99.90
55064;DHT22;40963;52.168;21.296;2023-08-06T08:01:15;25.40;99.90
55064;DHT22;40963;52.168;21.296;2023-08-06T08:03:40;25.50;99.90
55064;DHT22;40963;52.168;21.296;2023-08-06T08:06:06;25.60;99.90
55064;DHT22;40963;52.168;21.296;2023-08-06T08:08:31;25.80;99.90
55064;DHT22;40963;52.168;21.296;2023-08-06T08:10:57;25.80;99.90
55064;DHT22;40963;52.168;21.296;2023-08-06T08:13:24;25.90;99.90
55064;DHT22;40963;52.168;21.296;2023-08-06T08:15:50;26.10;99.90
55064;DHT22;40963;52.168;21.296;2023-08-06T08:18:15;26.20;99.90
55064;DHT22;40963;52.168;21.296;2023-08-06T08:20:41;26.30;99.90
55064;DHT22;40963;52.168;21.296;2023-08-06T08:23:07;26.30;99.90
55064;DHT22;40963;52.168;21.296;2023-08-06T08:25:32;26.40;99.90
55064;DHT22;40963;52.168;21.296;2023-08-06T08:27:59;26.50;99.90
55064;DHT22;40963;52.168;21.296;2023-08-06T08:30:25;26.60;99.90
55064;DHT22;40963;52.168;21.296;2023-08-06T08:32:51;26.70;99.90
55064;DHT22;40963;52.168;21.296;2023-08-06T08:35:17;26.80;99.90
55064;DHT22;40963;52.168;21.296;2023-08-06T08:37:43;26.80;99.90
55064;DHT22;40963;52.168;21.296;2023-08-06T08:40:09;26.90;99.90
55064;DHT22;40963;52.168;21.296;2023-08-06T08:42:36;26.90;99.90
55064;DHT22;40963;52.168;21.296;2023-08-06T08:45:03;26.90;99.90
55064;DHT22;40963;52.168;21.296;2023-08-06T08:47:30;26.90;99.90
55064;DHT22;40963;52.168;21.296;2023-08-06T08:49:58;26.90;99.90
55064;DHT22;40963;52.168;21.296;2023-08-06T08:52:26;27.00;99.90
55064;DHT22;40963;52.168;21.296;2023-08-06T08:54:55;27.10;99.90
55064;DHT22;40963;52.168;21.296;2023-08-06T08:57:21;27.10;99.90
55064;DHT22;40963;52.168;21.296;2023-08-06T08:59:47;27.20;99.90
55064;DHT22;40963;52.168;21.296;2023-08-06T09:02:15;27.30;99.90
55064;DHT22;40963;52.168;21.296;2023-08-06T09:04:41;27.40;99.90
55064;DHT22;40963;52.168;21.296;2023-08-06T09:07:10;27.50;99.90
55064;DHT22;40963;52.168;21.296;2023-08-06T09:09:39;27.50;99.20
55064;DHT22;40963;52.168;21.296;2023-08-06T09:12:16;27.50;99.00
55064;DHT22;40963;52.168;21.296;2023-08-06T09:14:42;27.60;98.70
55064;DHT22;40963;52.168;21.296;2023-08-06T09:17:09;27.60;98.10
55064;DHT22;40963;52.168;21.296;2023-08-06T09:19:36;27.60;98.00
55064;DHT22;40963;52.168;21.296;2023-08-06T09:22:02;27.60;97.20
55064;DHT22;40963;52.168;21.296;2023-08-06T09:24:27;27.60;96.90
55064;DHT22;40963;52.168;21.296;2023-08-06T09:26:53;27.70;97.20
55064;DHT22;40963;52.168;21.296;2023-08-06T09:29:19;27.80;97.00
55064;DHT22;40963;52.168;21.296;2023-08-06T09:31:48;27.80;96.40
55064;DHT22;40963;52.168;21.296;2023-08-06T09:34:19;27.80;96.20
55064;DHT22;40963;52.168;21.296;2023-08-06T09:36:54;27.80;95.90
55064;DHT22;40963;52.168;21.296;2023-08-06T09:39:24;27.90;95.50
55064;DHT22;40963;52.168;21.296;2023-08-06T09:41:56;27.90;95.00
55064;DHT22;40963;52.168;21.296;2023-08-06T09:44:22;28.00;95.30
55064;DHT22;40963;52.168;21.296;2023-08-06T09:46:50;28.10;95.00
55064;DHT22;40963;52.168;21.296;2023-08-06T09:49:18;28.20;93.90
55064;DHT22;40963;52.168;21.296;2023-08-06T09:51:45;28.30;93.40
55064;DHT22;40963;52.168;21.296;2023-08-06T09:54:15;28.30;92.50
55064;DHT22;40963;52.168;21.296;2023-08-06T09:56:42;28.40;92.20
55064;DHT22;40963;52.168;21.296;2023-08-06T09:59:08;28.40;91.70
55064;DHT22;40963;52.168;21.296;2023-08-06T10:01:34;28.40;91.80
55064;DHT22;40963;52.168;21.296;2023-08-06T10:04:01;28.40;92.40
55064;DHT22;40963;52.168;21.296;2023-08-06T10:06:28;28.50;92.80
55064;DHT22;40963;52.168;21.296;2023-08-06T10:08:54;28.60;93.00
55064;DHT22;40963;52.168;21.296;2023-08-06T10:11:22;28.70;93.30
55064;DHT22;40963;52.168;21.296;2023-08-06T10:13:51;28.90;92.00
55064;DHT22;40963;52.168;21.296;2023-08-06T10:16:19;29.00;91.20
55064;DHT22;40963;52.168;21.296;2023-08-06T10:18:47;29.10;88.00
55064;DHT22;40963;52.168;21.296;2023-08-06T10:21:14;29.20;85.10
55064;DHT22;40963;52.168;21.296;2023-08-06T10:23:40;29.30;83.70
55064;DHT22;40963;52.168;21.296;2023-08-06T10:26:07;29.30;84.20
55064;DHT22;40963;52.168;21.296;2023-08-06T10:28:39;29.40;83.60
55064;DHT22;40963;52.168;21.296;2023-08-06T10:31:05;29.40;78.90
55064;DHT22;40963;52.168;21.296;2023-08-06T10:33:45;29.50;78.90
55064;DHT22;40963;52.168;21.296;2023-08-06T10:36:11;29.40;77.50
55064;DHT22;40963;52.168;21.296;2023-08-06T10:38:48;29.40;78.20
55064;DHT22;40963;52.168;21.296;2023-08-06T10:41:29;29.50;79.40
55064;DHT22;40963;52.168;21.296;2023-08-06T10:44:07;29.60;79.40
55064;DHT22;40963;52.168;21.296;2023-08-06T10:46:33;29.60;77.70
55064;DHT22;40963;52.168;21.296;2023-08-06T10:48:59;29.50;76.60
55064;DHT22;40963;52.168;21.296;2023-08-06T10:51:25;29.40;76.40
55064;DHT22;40963;52.168;21.296;2023-08-06T10:53:51;29.30;75.40
55064;DHT22;40963;52.168;21.296;2023-08-06T10:56:22;29.20;76.20
55064;DHT22;40963;52.168;21.296;2023-08-06T10:58:49;29.30;76.70
55064;DHT22;40963;52.168;21.296;2023-08-06T11:01:15;29.40;77.20
55064;DHT22;40963;52.168;21.296;2023-08-06T11:03:42;29.50;76.40
55064;DHT22;40963;52.168;21.296;2023-08-06T11:06:09;29.60;76.10
55064;DHT22;40963;52.168;21.296;2023-08-06T11:08:36;29.80;76.10
55064;DHT22;40963;52.168;21.296;2023-08-06T11:11:13;29.90;75.80
55064;DHT22;40963;52.168;21.296;2023-08-06T11:13:42;30.10;73.70
55064;DHT22;40963;52.168;21.296;2023-08-06T11:16:09;30.20;72.60
55064;DHT22;40963;52.168;21.296;2023-08-06T11:18:35;30.30;71.10
55064;DHT22;40963;52.168;21.296;2023-08-06T11:21:01;30.50;71.00
55064;DHT22;40963;52.168;21.296;2023-08-06T11:23:27;30.50;68.90
55064;DHT22;40963;52.168;21.296;2023-08-06T11:25:57;30.50;67.80
55064;DHT22;40963;52.168;21.296;2023-08-06T11:28:22;30.50;67.10
55064;DHT22;40963;52.168;21.296;2023-08-06T11:30:49;30.40;66.50
55064;DHT22;40963;52.168;21.296;2023-08-06T11:33:20;30.20;66.70
55064;DHT22;40963;52.168;21.296;2023-08-06T11:35:48;30.10;67.40
55064;DHT22;40963;52.168;21.296;2023-08-06T11:38:14;30.00;67.00
55064;DHT22;40963;52.168;21.296;2023-08-06T11:40:40;30.00;67.80
55064;DHT22;40963;52.168;21.296;2023-08-06T11:43:06;30.00;68.40
55064;DHT22;40963;52.168;21.296;2023-08-06T11:45:35;30.10;69.00
55064;DHT22;40963;52.168;21.296;2023-08-06T11:48:01;30.20;68.40
55064;DHT22;40963;52.168;21.296;2023-08-06T11:50:27;30.10;67.80
55064;DHT22;40963;52.168;21.296;2023-08-06T11:52:56;30.10;67.50
55064;DHT22;40963;52.168;21.296;2023-08-06T11:55:23;30.10;67.90
55064;DHT22;40963;52.168;21.296;2023-08-06T11:57:49;30.10;67.90
55064;DHT22;40963;52.168;21.296;2023-08-06T12:00:15;30.20;67.20
55064;DHT22;40963;52.168;21.296;2023-08-06T12:02:44;30.20;66.40
55064;DHT22;40963;52.168;21.296;2023-08-06T12:05:14;30.20;65.80
55064;DHT22;40963;52.168;21.296;2023-08-06T12:07:45;30.30;65.30
55064;DHT22;40963;52.168;21.296;2023-08-06T12:10:13;30.30;64.70
55064;DHT22;40963;52.168;21.296;2023-08-06T12:12:38;30.30;64.40
55064;DHT22;40963;52.168;21.296;2023-08-06T12:15:05;30.20;64.40
55064;DHT22;40963;52.168;21.296;2023-08-06T12:17:32;30.10;63.60
55064;DHT22;40963;52.168;21.296;2023-08-06T12:19:57;30.00;63.40
55064;DHT22;40963;52.168;21.296;2023-08-06T12:22:23;29.90;63.70
55064;DHT22;40963;52.168;21.296;2023-08-06T12:24:49;29.70;64.10
55064;DHT22;40963;52.168;21.296;2023-08-06T12:27:15;29.60;64.50
55064;DHT22;40963;52.168;21.296;2023-08-06T12:29:48;29.60;64.60
55064;DHT22;40963;52.168;21.296;2023-08-06T12:32:15;29.40;65.20
55064;DHT22;40963;52.168;21.296;2023-08-06T12:34:41;29.40;65.70
55064;DHT22;40963;52.168;21.296;2023-08-06T12:37:08;29.30;66.00
55064;DHT22;40963;52.168;21.296;2023-08-06T12:39:38;29.20;66.60
55064;DHT22;40963;52.168;21.296;2023-08-06T12:42:05;29.10;67.10
55064;DHT22;40963;52.168;21.296;2023-08-06T12:44:31;29.00;67.40
55064;DHT22;40963;52.168;21.296;2023-08-06T12:46:57;29.00;67.70
55064;DHT22;40963;52.168;21.296;2023-08-06T12:49:23;28.90;67.90
55064;DHT22;40963;52.168;21.296;2023-08-06T12:51:49;28.90;68.30
55064;DHT22;40963;52.168;21.296;2023-08-06T12:54:16;28.80;68.40
55064;DHT22;40963;52.168;21.296;2023-08-06T12:56:43;28.80;68.80
55064;DHT22;40963;52.168;21.296;2023-08-06T12:59:09;28.80;69.10
55064;DHT22;40963;52.168;21.296;2023-08-06T13:01:35;28.70;69.30
55064;DHT22;40963;52.168;21.296;2023-08-06T13:04:00;28.70;69.70
55064;DHT22;40963;52.168;21.296;2023-08-06T13:06:26;28.60;70.10
55064;DHT22;40963;52.168;21.296;2023-08-06T13:08:52;28.60;70.60
55064;DHT22;40963;52.168;21.296;2023-08-06T13:11:17;28.60;71.10
55064;DHT22;40963;52.168;21.296;2023-08-06T13:13:44;28.50;71.80
55064;DHT22;40963;52.168;21.296;2023-08-06T13:16:10;28.50;72.60
55064;DHT22;40963;52.168;21.296;2023-08-06T13:18:35;28.40;74.30
55064;DHT22;40963;52.168;21.296;2023-08-06T13:21:01;28.40;75.70
55064;DHT22;40963;52.168;21.296;2023-08-06T13:23:27;28.40;77.20
55064;DHT22;40963;52.168;21.296;2023-08-06T13:25:53;28.40;78.20
55064;DHT22;40963;52.168;21.296;2023-08-06T13:28:19;28.50;78.90
55064;DHT22;40963;52.168;21.296;2023-08-06T13:30:45;28.50;78.70
55064;DHT22;40963;52.168;21.296;2023-08-06T13:33:11;28.40;77.70
55064;DHT22;40963;52.168;21.296;2023-08-06T13:35:37;28.40;77.20
55064;DHT22;40963;52.168;21.296;2023-08-06T13:38:03;28.40;78.00
55064;DHT22;40963;52.168;21.296;2023-08-06T13:40:32;28.30;77.90
55064;DHT22;40963;52.168;21.296;2023-08-06T13:42:57;28.30;78.60
55064;DHT22;40963;52.168;21.296;2023-08-06T13:45:23;28.30;78.40
55064;DHT22;40963;52.168;21.296;2023-08-06T13:47:49;28.40;78.60
55064;DHT22;40963;52.168;21.296;2023-08-06T13:50:14;28.40;79.10
55064;DHT22;40963;52.168;21.296;2023-08-06T13:52:40;28.50;79.40
55064;DHT22;40963;52.168;21.296;2023-08-06T13:55:06;28.50;80.10
55064;DHT22;40963;52.168;21.296;2023-08-06T13:57:33;28.60;81.00
55064;DHT22;40963;52.168;21.296;2023-08-06T13:59:59;28.60;81.70
55064;DHT22;40963;52.168;21.296;2023-08-06T14:02:24;28.60;82.20
55064;DHT22;40963;52.168;21.296;2023-08-06T14:04:51;28.70;81.80
55064;DHT22;40963;52.168;21.296;2023-08-06T14:07:17;28.60;79.40
55064;DHT22;40963;52.168;21.296;2023-08-06T14:09:43;28.50;78.40
55064;DHT22;40963;52.168;21.296;2023-08-06T14:12:09;28.50;78.80
55064;DHT22;40963;52.168;21.296;2023-08-06T14:14:35;28.40;79.10
55064;DHT22;40963;52.168;21.296;2023-08-06T14:17:01;28.50;79.60
55064;DHT22;40963;52.168;21.296;2023-08-06T14:19:27;28.40;79.30
55064;DHT22;40963;52.168;21.296;2023-08-06T14:21:53;28.40;77.80
55064;DHT22;40963;52.168;21.296;2023-08-06T14:24:19;28.30;77.80
55064;DHT22;40963;52.168;21.296;2023-08-06T14:26:44;28.20;77.90
55064;DHT22;40963;52.168;21.296;2023-08-06T14:29:10;28.00;78.00
55064;DHT22;40963;52.168;21.296;2023-08-06T14:31:35;27.90;79.10
55064;DHT22;40963;52.168;21.296;2023-08-06T14:34:01;27.80;80.10
55064;DHT22;40963;52.168;21.296;2023-08-06T14:36:27;27.80;80.30
55064;DHT22;40963;52.168;21.296;2023-08-06T14:38:53;27.60;80.60
55064;DHT22;40963;52.168;21.296;2023-08-06T14:41:18;27.50;81.20
55064;DHT22;40963;52.168;21.296;2023-08-06T14:43:44;27.50;82.00
55064;DHT22;40963;52.168;21.296;2023-08-06T14:46:09;27.50;83.10
55064;DHT22;40963;52.168;21.296;2023-08-06T14:48:35;27.50;83.60
55064;DHT22;40963;52.168;21.296;2023-08-06T14:51:01;27.50;83.60
55064;DHT22;40963;52.168;21.296;2023-08-06T14:53:26;27.60;83.80
55064;DHT22;40963;52.168;21.296;2023-08-06T14:55:52;27.60;84.30
55064;DHT22;40963;52.168;21.296;2023-08-06T14:58:18;27.70;84.10
55064;DHT22;40963;52.168;21.296;2023-08-06T15:00:45;27.80;84.70
55064;DHT22;40963;52.168;21.296;2023-08-06T15:03:11;27.80;84.30
55064;DHT22;40963;52.168;21.296;2023-08-06T15:05:36;27.90;82.90
55064;DHT22;40963;52.168;21.296;2023-08-06T15:08:02;27.90;82.10
55064;DHT22;40963;52.168;21.296;2023-08-06T15:10:28;28.00;81.40
55064;DHT22;40963;52.168;21.296;2023-08-06T15:12:54;28.00;81.10
55064;DHT22;40963;52.168;21.296;2023-08-06T15:15:19;27.90;81.70